ADDS TAF Board (Experimental) INFO

IDs: Format: Expanded Condensed

Updated at: 0455 UTC 22 Dec 2014

KSTL - St Louis/Lambert Int, MO, US

Issued at 0301 UTC 22 Dec 2014
Time0451Z22/05Z22/06Z22/07Z22/08Z22/09Z22/10Z22/11Z22/12Z22/13Z22/14Z22/15Z22/16Z22/17Z
TypeOBSPRVLPRVLPRVLPRVLPRVLPRVLPRVLPRVLPRVLPRVLPRVLPRVLPRVL
VIS10>6>6>6>6>6>6>6>6>6>6>644
CIG5050505050505050501515151010
CoverOVCOVCOVCOVCOVCOVCOVCOVCOVCOVCOVCOVCOVCOVC
FltCat--VFRVFRVFRVFRVFRVFRVFRVFRMVFRMVFRMVFRMVFRMVFR
WX-------------------------RA BR-RA BR
WDir140140140140140140140140140140140140140140
WSpd911111111111111111010101212
WGst----------------------------
R06/24
XWnd-9-11-11-11-11-11-11-11-11-10-10-10-12-12
HWnd22222222222233
R11/29
XWnd-3-3-3-3-3-3-3-3-3-3-3-3-4-4
HWnd910101010101010101010101111
R12/30
XWnd-3-3-3-3-3-3-3-3-3-3-3-3-4-4
HWnd910101010101010101010101111
Raw TAF
KSTL 220301Z 2203/2306 14011KT P6SM OVC050
  FM221300 14010KT P6SM BKN015 OVC040
  FM221600 14012KT 4SM -RA BR SCT008 OVC010
  FM230000 17012KT P6SM OVC015


Raw METAR
KSTL 220451Z 14009KT 10SM OVC050 07/M01 A2995 RMK AO2 SLP146 T00671006
KSTL 220351Z 14009KT 10SM BKN055 OVC140 07/M01 A2996 RMK AO2 SLP150 T00671006

TAF Board Legend

Hazard VFR MVFR IFR LIFR
Visibility (sm) >5 3≤X≤5 1≤X<3 <1
Ceiling (100 ft) >30 10≤X≤30 5≤X<10 <5
Wind Speed (kt) <10 10≤X<20 20≤X<30 ≥30
Wind Gust (kt) <15 15≤X<25 25≤X<35 ≥35
Weather No Wx Reported VCTS,-TS,-FZRA TS,FZRA +TS,+FZRA


Page loaded:  04:55 UTC  |   08:55 PM Pacific  |   09:55 PM Mountain  |   10:55 PM Central  |   11:55 PM Eastern

 

ADVISORIES

FORECASTS

FORECASTS

OBSERVATIONS

USER TOOLS

ABOUT US